Time;durP1;ratioP1;P1;durP2;ratioP2;P2;SDS_P1;SDS_P2;PMS_P1;PMS_P2;Temp;Humidity;BMP_temperature;BMP_pressure;BME280_temperature;BME280_humidity;BME280_pressure;Samples;Min_cycle;Max_cycle;Signal;HPM_P1;HPM_P2
2023/03/14 00:01:53;;;;;;;2.33;1.87;;;3.70;73.80;;;;;;4959929;28;20224;-74
2023/03/14 00:04:19;;;;;;;3.57;2.03;;;3.60;73.20;;;;;;4951864;28;20232;-75
2023/03/14 00:06:46;;;;;;;3.23;2.67;;;3.60;72.60;;;;;;4955910;28;20203;-74
2023/03/14 00:09:13;;;;;;;2.20;2.10;;;3.60;72.70;;;;;;4953517;28;20205;-75
2023/03/14 00:11:38;;;;;;;2.60;2.40;;;3.50;73.30;;;;;;4957316;28;20229;-75
2023/03/14 00:14:04;;;;;;;3.10;1.90;;;3.50;72.80;;;;;;4954611;28;20211;-75
2023/03/14 00:16:30;;;;;;;3.57;1.57;;;3.50;72.40;;;;;;4952674;28;20203;-75
2023/03/14 00:18:57;;;;;;;1.60;1.50;;;3.40;71.80;;;;;;4956372;28;20227;-75
2023/03/14 00:21:23;;;;;;;1.43;1.37;;;3.40;71.40;;;;;;4955139;28;20823;-75
2023/03/14 00:23:49;;;;;;;1.13;1.13;;;3.40;71.50;;;;;;4954711;28;20229;-75
2023/03/14 00:26:17;;;;;;;2.87;1.37;;;3.40;71.30;;;;;;4956770;28;20198;-75
2023/03/14 00:28:43;;;;;;;1.53;1.53;;;3.30;71.10;;;;;;4957127;28;20194;-75
2023/03/14 00:31:11;;;;;;;1.17;1.17;;;3.30;70.90;;;;;;4955085;28;20194;-75
2023/03/14 00:33:37;;;;;;;3.10;1.30;;;3.30;71.00;;;;;;4957928;28;20202;-75
2023/03/14 00:36:08;;;;;;;1.43;1.37;;;3.30;70.80;;;;;;4960205;28;20671;-75
2023/03/14 00:38:35;;;;;;;1.57;1.27;;;3.30;71.20;;;;;;4956768;28;20182;-75
2023/03/14 00:41:04;;;;;;;1.83;1.43;;;3.30;71.70;;;;;;4952633;28;20274;-75
2023/03/14 00:43:30;;;;;;;2.17;1.13;;;3.20;71.90;;;;;;4953527;28;21060;-75
2023/03/14 00:45:56;;;;;;;1.83;1.30;;;3.20;71.80;;;;;;4957010;28;20269;-75
2023/03/14 00:48:22;;;;;;;3.23;1.43;;;3.20;71.80;;;;;;4955871;28;20194;-76
2023/03/14 00:50:48;;;;;;;1.70;1.60;;;3.20;71.90;;;;;;4955348;28;21732;-76
2023/03/14 00:53:14;;;;;;;1.97;1.20;;;3.20;72.00;;;;;;4956735;28;20233;-75
2023/03/14 00:55:42;;;;;;;1.60;1.50;;;3.10;72.00;;;;;;4954168;28;20249;-76
2023/03/14 00:58:08;;;;;;;2.27;1.60;;;3.20;72.30;;;;;;4953984;28;20178;-75
2023/03/14 01:00:35;;;;;;;1.53;1.20;;;3.20;72.50;;;;;;4957661;28;20265;-75
2023/03/14 01:03:01;;;;;;;0.90;0.90;;;3.20;72.60;;;;;;4960502;28;20229;-75
2023/03/14 01:05:27;;;;;;;2.47;2.20;;;3.20;72.70;;;;;;4953830;28;20181;-75
2023/03/14 01:07:53;;;;;;;3.33;1.77;;;3.20;72.80;;;;;;4954219;28;20186;-75
2023/03/14 01:10:19;;;;;;;2.17;1.97;;;3.20;72.80;;;;;;4957626;28;20584;-75
2023/03/14 01:12:44;;;;;;;5.17;2.80;;;3.20;72.80;;;;;;4954244;28;20286;-76
2023/03/14 01:15:10;;;;;;;3.13;2.43;;;3.20;73.10;;;;;;4956772;28;20189;-75
2023/03/14 01:17:37;;;;;;;4.73;2.97;;;3.20;73.40;;;;;;4957322;28;20197;-75
2023/03/14 01:20:04;;;;;;;1.83;1.70;;;3.20;73.80;;;;;;4953462;28;20210;-75
2023/03/14 01:22:30;;;;;;;2.47;2.27;;;3.20;74.30;;;;;;4955314;28;20657;-75
2023/03/14 01:24:56;;;;;;;3.90;2.43;;;3.10;74.40;;;;;;4958829;28;20178;-76
2023/03/14 01:27:21;;;;;;;3.53;2.33;;;3.10;74.30;;;;;;4955328;28;20261;-76
2023/03/14 01:29:47;;;;;;;4.03;2.20;;;3.10;74.50;;;;;;4954704;28;20197;-75
2023/03/14 01:32:13;;;;;;;1.90;1.80;;;3.10;74.70;;;;;;4952149;28;20186;-76
2023/03/14 01:34:39;;;;;;;3.60;2.70;;;3.00;74.70;;;;;;4959319;28;20178;-75
2023/03/14 01:37:07;;;;;;;2.97;2.07;;;3.00;74.80;;;;;;4957554;28;20685;-76
2023/03/14 01:39:32;;;;;;;2.60;1.90;;;3.00;74.90;;;;;;4953621;28;20174;-76
2023/03/14 01:41:59;;;;;;;2.10;1.97;;;3.00;74.80;;;;;;4956399;28;21171;-76
2023/03/14 01:44:25;;;;;;;3.23;1.80;;;3.00;74.80;;;;;;4956897;28;20182;-75
2023/03/14 01:46:50;;;;;;;2.37;2.13;;;3.00;74.70;;;;;;4960876;28;20185;-76
2023/03/14 01:49:35;;;;;;;3.13;2.30;;;3.00;74.90;;;;;;4955904;28;20193;-76
2023/03/14 01:52:10;;;;;;;3.63;2.13;;;3.00;75.10;;;;;;4951972;28;20200;-76
2023/03/14 01:54:48;;;;;;;2.43;2.23;;;2.90;75.60;;;;;;4954013;28;20207;-76
2023/03/14 01:57:16;;;;;;;4.10;2.33;;;2.90;76.10;;;;;;4955767;28;20190;-75
2023/03/14 01:59:47;;;;;;;6.80;2.33;;;2.80;76.30;;;;;;4957240;28;20182;-75
2023/03/14 02:02:15;;;;;;;4.13;2.53;;;2.80;76.40;;;;;;4954565;28;20230;-75
2023/03/14 02:04:41;;;;;;;4.03;2.40;;;2.70;77.10;;;;;;4956188;28;20206;-75
2023/03/14 02:07:27;;;;;;;2.83;2.27;;;2.70;77.00;;;;;;4959082;28;20186;-75
2023/03/14 02:09:55;;;;;;;2.93;1.90;;;2.60;77.10;;;;;;4954291;28;20297;-75
2023/03/14 02:12:21;;;;;;;4.23;2.30;;;2.60;77.00;;;;;;4956110;28;20576;-76
2023/03/14 02:14:48;;;;;;;3.17;2.03;;;2.50;77.10;;;;;;4956443;28;20182;-76
2023/03/14 02:17:17;;;;;;;3.17;2.17;;;2.50;77.00;;;;;;4955725;28;20870;-76
2023/03/14 02:20:24;;;;;;;1.90;1.80;;;2.50;77.10;;;;;;4956871;28;20685;-76
2023/03/14 02:22:49;;;;;;;2.03;1.83;;;2.50;77.20;;;;;;4956239;28;20218;-76
2023/03/14 02:25:37;;;;;;;2.00;1.90;;;2.50;77.50;;;;;;4953478;28;20202;-76
2023/03/14 02:28:03;;;;;;;2.87;2.00;;;2.40;77.60;;;;;;4957226;28;20186;-76
2023/03/14 02:30:30;;;;;;;2.83;2.33;;;2.40;77.80;;;;;;4962973;28;20248;-76
2023/03/14 02:33:17;;;;;;;1.93;1.83;;;2.40;77.80;;;;;;4957784;28;20199;-76
2023/03/14 02:35:55;;;;;;;2.73;2.53;;;2.40;77.60;;;;;;4963626;28;20237;-76
2023/03/14 02:38:33;;;;;;;2.27;2.03;;;2.40;77.30;;;;;;4960722;28;20194;-76
2023/03/14 02:40:59;;;;;;;2.77;2.13;;;2.40;76.70;;;;;;4957554;28;20197;-76
2023/03/14 02:43:25;;;;;;;1.70;1.60;;;2.40;76.00;;;;;;4959755;28;20218;-76
2023/03/14 02:45:51;;;;;;;4.20;2.07;;;2.50;75.70;;;;;;4960556;28;20241;-76
2023/03/14 02:48:33;;;;;;;4.07;1.50;;;2.50;76.40;;;;;;4961541;28;20648;-76
2023/03/14 02:51:00;;;;;;;1.30;1.20;;;2.40;76.80;;;;;;4954642;28;20194;-76
2023/03/14 02:53:31;;;;;;;2.97;2.00;;;2.40;77.20;;;;;;4958248;28;20186;-76
2023/03/14 02:55:57;;;;;;;2.00;1.77;;;2.30;77.20;;;;;;4959751;28;20194;-76
2023/03/14 02:58:23;;;;;;;2.93;2.53;;;2.30;77.00;;;;;;4957394;28;20193;-76
2023/03/14 03:00:48;;;;;;;1.80;1.70;;;2.30;77.10;;;;;;4962156;28;20187;-76
2023/03/14 03:03:14;;;;;;;1.00;1.00;;;2.30;77.10;;;;;;4954555;28;20222;-76
2023/03/14 03:05:40;;;;;;;1.90;1.80;;;2.30;77.30;;;;;;4955907;28;20198;-76
2023/03/14 03:08:06;;;;;;;1.87;1.77;;;2.30;77.20;;;;;;4955271;28;20221;-76
2023/03/14 03:10:32;;;;;;;1.73;1.63;;;2.30;76.80;;;;;;4956863;28;20201;-76
2023/03/14 03:12:58;;;;;;;6.97;2.40;;;2.30;76.60;;;;;;4955308;28;20187;-75
2023/03/14 03:15:25;;;;;;;1.67;1.57;;;2.20;76.80;;;;;;4957957;28;20261;-76
2023/03/14 03:17:50;;;;;;;2.30;2.10;;;2.20;76.90;;;;;;4959297;28;20186;-76
2023/03/14 03:20:16;;;;;;;2.30;2.10;;;2.20;77.10;;;;;;4957700;28;20186;-76
2023/03/14 03:22:42;;;;;;;2.17;1.93;;;2.20;77.20;;;;;;4961664;28;20379;-77
2023/03/14 03:25:08;;;;;;;4.40;1.80;;;2.20;77.30;;;;;;4965051;28;21398;-75
2023/03/14 03:27:35;;;;;;;2.07;1.97;;;2.10;77.60;;;;;;4962755;28;20195;-76
2023/03/14 03:30:01;;;;;;;1.77;1.67;;;2.10;77.70;;;;;;4961217;28;20187;-76
2023/03/14 03:32:27;;;;;;;1.63;1.57;;;2.10;77.70;;;;;;4957636;28;20637;-76
2023/03/14 03:34:52;;;;;;;2.27;1.87;;;2.10;77.80;;;;;;4958474;28;20194;-76
2023/03/14 03:37:18;;;;;;;1.47;1.47;;;2.10;77.70;;;;;;4960561;28;20858;-76
2023/03/14 03:39:44;;;;;;;1.63;1.40;;;2.10;77.80;;;;;;4959195;28;20195;-76
2023/03/14 03:42:10;;;;;;;6.50;1.93;;;2.10;77.60;;;;;;4955081;28;20270;-76
2023/03/14 03:44:36;;;;;;;2.53;1.90;;;2.00;77.90;;;;;;4956628;28;20986;-76
2023/03/14 03:47:02;;;;;;;2.73;1.83;;;2.00;78.00;;;;;;4959829;28;20273;-76
2023/03/14 03:49:31;;;;;;;2.00;1.77;;;2.00;77.30;;;;;;4953714;28;20190;-76
2023/03/14 03:51:58;;;;;;;1.83;1.73;;;2.10;76.90;;;;;;4960695;28;20314;-75
2023/03/14 03:54:24;;;;;;;1.80;1.70;;;2.00;77.60;;;;;;4960697;28;20220;-75
2023/03/14 03:56:50;;;;;;;1.80;1.70;;;2.00;77.60;;;;;;4957620;28;20726;-75
2023/03/14 03:59:17;;;;;;;5.30;2.47;;;2.00;77.10;;;;;;4957364;28;20607;-76
2023/03/14 04:01:43;;;;;;;2.90;2.10;;;2.00;77.20;;;;;;4958961;28;20182;-75
2023/03/14 04:04:08;;;;;;;2.67;2.47;;;2.00;77.10;;;;;;4958178;28;20218;-76
2023/03/14 04:06:34;;;;;;;2.57;2.37;;;2.00;77.50;;;;;;4956536;28;20274;-75
2023/03/14 04:09:00;;;;;;;2.80;2.23;;;1.90;77.80;;;;;;4956741;28;20214;-75
2023/03/14 04:11:26;;;;;;;3.57;1.57;;;1.80;77.90;;;;;;4957971;28;20201;-75
2023/03/14 04:13:52;;;;;;;2.27;2.03;;;1.80;78.00;;;;;;4954219;28;20182;-76
2023/03/14 04:16:20;;;;;;;2.13;2.03;;;1.80;78.20;;;;;;4957662;28;20238;-75
2023/03/14 04:18:46;;;;;;;2.27;2.17;;;1.70;78.40;;;;;;4956058;28;20655;-75
2023/03/14 04:21:12;;;;;;;2.27;2.17;;;1.70;78.40;;;;;;4950802;28;20237;-75
2023/03/14 04:23:38;;;;;;;2.13;2.03;;;1.60;78.70;;;;;;4956194;28;20301;-75
2023/03/14 04:26:04;;;;;;;2.03;1.83;;;1.60;78.90;;;;;;4960296;28;20190;-76
2023/03/14 04:28:29;;;;;;;1.40;1.13;;;1.60;78.50;;;;;;4958626;28;20190;-76
2023/03/14 04:30:55;;;;;;;2.97;2.00;;;1.60;78.80;;;;;;4956563;28;20190;-76
2023/03/14 04:33:21;;;;;;;2.87;2.20;;;1.50;79.00;;;;;;4955240;28;20278;-76
2023/03/14 04:35:47;;;;;;;5.50;2.20;;;1.50;79.10;;;;;;4958223;28;20253;-76
2023/03/14 04:38:13;;;;;;;2.20;2.10;;;1.50;79.30;;;;;;4957396;28;20295;-76
2023/03/14 04:40:40;;;;;;;2.17;1.73;;;1.50;79.30;;;;;;4953787;28;20702;-75
2023/03/14 04:43:06;;;;;;;1.57;1.47;;;1.50;79.40;;;;;;4958883;28;20229;-75
2023/03/14 04:45:32;;;;;;;2.03;1.83;;;1.50;79.50;;;;;;4956988;28;20195;-75
2023/03/14 04:47:58;;;;;;;4.90;1.90;;;1.50;79.50;;;;;;4957687;28;20205;-76
2023/03/14 04:50:23;;;;;;;1.83;1.73;;;1.50;79.40;;;;;;4957389;28;21889;-76
2023/03/14 04:52:49;;;;;;;2.20;1.50;;;1.50;79.40;;;;;;4957759;28;20190;-76
2023/03/14 04:55:15;;;;;;;1.37;1.00;;;1.50;79.40;;;;;;4954121;28;20232;-75
2023/03/14 04:57:40;;;;;;;1.67;1.60;;;1.50;79.40;;;;;;4955323;28;20942;-75
2023/03/14 05:00:07;;;;;;;1.07;1.07;;;1.50;79.40;;;;;;4955146;28;20191;-76
2023/03/14 05:02:34;;;;;;;1.53;1.43;;;1.50;79.40;;;;;;4956432;28;20275;-76
2023/03/14 05:04:59;;;;;;;1.47;1.37;;;1.50;79.50;;;;;;4956264;28;20591;-76
2023/03/14 05:07:25;;;;;;;3.17;1.40;;;1.50;79.60;;;;;;4953942;28;20264;-75
2023/03/14 05:09:53;;;;;;;1.43;1.13;;;1.50;79.70;;;;;;4954069;28;20983;-78
2023/03/14 05:12:19;;;;;;;2.07;1.97;;;1.50;79.60;;;;;;4953508;28;20186;-77
2023/03/14 05:14:44;;;;;;;2.30;1.80;;;1.50;79.70;;;;;;4952938;28;20258;-77
2023/03/14 05:17:11;;;;;;;2.40;1.83;;;1.60;79.70;;;;;;4956595;28;20293;-77
2023/03/14 05:19:37;;;;;;;4.70;1.37;;;1.60;79.70;;;;;;4956636;28;20185;-74
2023/03/14 05:22:03;;;;;;;3.90;1.90;;;1.60;80.10;;;;;;4955128;28;20195;-74
2023/03/14 05:24:28;;;;;;;2.80;1.33;;;1.70;80.10;;;;;;4956287;28;20191;-74
2023/03/14 05:26:54;;;;;;;1.93;1.83;;;1.70;80.10;;;;;;4958831;28;20306;-74
2023/03/14 05:29:20;;;;;;;1.77;1.67;;;1.80;80.00;;;;;;4961243;28;20218;-74
2023/03/14 05:31:45;;;;;;;2.97;1.13;;;1.80;79.90;;;;;;4957561;28;20197;-74
2023/03/14 05:34:11;;;;;;;2.57;1.97;;;1.90;79.80;;;;;;4957705;28;20179;-74
2023/03/14 05:36:38;;;;;;;1.37;1.13;;;1.90;79.50;;;;;;4958963;28;20186;-74
2023/03/14 05:39:03;;;;;;;3.37;1.83;;;2.00;79.30;;;;;;4954117;28;20752;-73
2023/03/14 05:41:29;;;;;;;1.10;1.10;;;2.10;79.30;;;;;;4952956;28;20190;-73
2023/03/14 05:43:55;;;;;;;2.83;1.83;;;2.10;79.00;;;;;;4952362;28;20225;-72
2023/03/14 05:46:20;;;;;;;2.27;1.60;;;2.20;78.70;;;;;;4958065;28;20676;-75
2023/03/14 05:48:46;;;;;;;4.10;2.10;;;2.30;78.60;;;;;;4958354;28;20179;-74
2023/03/14 05:51:12;;;;;;;4.83;1.90;;;2.40;78.50;;;;;;4954581;28;20198;-73
2023/03/14 05:53:37;;;;;;;2.37;2.10;;;2.40;78.30;;;;;;4956136;28;20193;-73
2023/03/14 05:56:03;;;;;;;3.07;2.17;;;2.50;77.40;;;;;;4956070;28;20202;-74
2023/03/14 05:58:29;;;;;;;1.67;1.57;;;2.60;77.70;;;;;;4955277;28;20187;-72
2023/03/14 06:00:54;;;;;;;5.53;2.80;;;2.70;77.80;;;;;;4954270;28;20194;-72
2023/03/14 06:03:20;;;;;;;1.93;1.83;;;2.80;77.70;;;;;;4961416;28;20270;-75
2023/03/14 06:05:46;;;;;;;2.13;1.87;;;2.90;77.50;;;;;;4961344;28;20197;-75
2023/03/14 06:08:11;;;;;;;2.30;2.20;;;3.00;77.20;;;;;;4960830;28;20183;-76
2023/03/14 06:10:37;;;;;;;2.63;1.80;;;3.00;77.10;;;;;;4963234;28;20190;-75
2023/03/14 06:13:03;;;;;;;2.83;2.63;;;3.10;76.30;;;;;;4959851;28;20191;-76
2023/03/14 06:15:29;;;;;;;4.33;2.00;;;3.10;76.60;;;;;;4959772;28;20206;-76
2023/03/14 06:17:55;;;;;;;5.77;1.67;;;3.10;76.70;;;;;;4960879;28;20211;-75
2023/03/14 06:20:21;;;;;;;4.90;2.63;;;3.20;76.50;;;;;;4958788;28;20699;-77
2023/03/14 06:22:47;;;;;;;2.40;1.97;;;3.20;76.30;;;;;;4961148;28;20305;-75
2023/03/14 06:25:13;;;;;;;2.07;1.97;;;3.20;76.00;;;;;;4957555;28;20190;-75
2023/03/14 06:27:38;;;;;;;3.20;2.23;;;3.30;75.80;;;;;;4962851;28;20221;-75
2023/03/14 06:30:05;;;;;;;4.13;2.63;;;3.30;75.60;;;;;;4960905;28;20618;-77
2023/03/14 06:32:31;;;;;;;2.97;2.30;;;3.30;75.60;;;;;;4961231;28;20183;-76
2023/03/14 06:35:00;;;;;;;2.73;2.53;;;3.40;75.70;;;;;;4960493;28;20272;-75
2023/03/14 06:37:27;;;;;;;3.00;2.73;;;3.50;75.70;;;;;;4958879;28;20269;-75
2023/03/14 06:39:53;;;;;;;2.37;2.17;;;3.60;75.40;;;;;;4956770;28;20641;-76
2023/03/14 06:42:19;;;;;;;2.37;2.17;;;3.60;75.10;;;;;;4961022;28;20238;-75
2023/03/14 06:44:44;;;;;;;3.63;2.60;;;3.70;75.00;;;;;;4957862;28;20198;-75
2023/03/14 06:47:10;;;;;;;2.80;2.60;;;3.70;75.00;;;;;;4957877;28;20861;-76
2023/03/14 06:49:36;;;;;;;2.57;2.30;;;3.80;74.50;;;;;;4963127;28;20686;-77
2023/03/14 06:52:01;;;;;;;2.67;2.27;;;3.80;74.60;;;;;;4958138;28;20274;-75
2023/03/14 06:54:27;;;;;;;4.27;2.60;;;3.90;74.60;;;;;;4956358;28;20182;-75
2023/03/14 06:56:52;;;;;;;3.87;2.90;;;4.00;74.50;;;;;;4960997;28;20178;-75
2023/03/14 06:59:18;;;;;;;6.17;2.97;;;4.10;74.50;;;;;;4955321;28;20192;-76
2023/03/14 07:01:44;;;;;;;3.00;2.23;;;4.20;73.70;;;;;;4958205;28;20186;-76
2023/03/14 07:04:10;;;;;;;2.87;2.60;;;4.20;73.50;;;;;;4953716;28;20241;-76
2023/03/14 07:06:35;;;;;;;2.73;2.43;;;4.40;72.90;;;;;;4957558;28;20574;-76
2023/03/14 07:09:01;;;;;;;1.80;1.67;;;4.40;72.80;;;;;;4956459;28;20189;-75
2023/03/14 07:11:27;;;;;;;5.07;2.23;;;4.50;71.90;;;;;;4958099;28;21524;-75
2023/03/14 07:13:53;;;;;;;2.43;2.17;;;4.60;71.90;;;;;;4959290;28;20186;-76
2023/03/14 07:16:19;;;;;;;3.80;2.30;;;4.70;71.90;;;;;;4957615;28;20198;-76
2023/03/14 07:18:45;;;;;;;2.27;1.97;;;4.80;71.80;;;;;;4956671;28;20187;-75
2023/03/14 07:21:11;;;;;;;3.50;2.00;;;4.90;71.50;;;;;;4956844;28;20193;-76
2023/03/14 07:23:38;;;;;;;2.50;2.10;;;4.90;71.20;;;;;;4959913;28;20218;-76
2023/03/14 07:26:04;;;;;;;2.63;2.43;;;5.00;71.20;;;;;;4951945;28;20278;-75
2023/03/14 07:28:30;;;;;;;2.80;2.53;;;5.10;71.80;;;;;;4956889;28;20236;-75
2023/03/14 07:30:56;;;;;;;3.83;2.87;;;5.20;72.00;;;;;;4958207;28;20282;-75
2023/03/14 07:33:21;;;;;;;3.67;2.77;;;5.30;71.80;;;;;;4963319;28;20273;-75
2023/03/14 07:35:48;;;;;;;3.30;3.00;;;5.40;71.30;;;;;;4959247;28;20178;-76
2023/03/14 07:38:14;;;;;;;6.77;3.87;;;5.50;70.90;;;;;;4953651;28;20191;-76
2023/03/14 07:40:40;;;;;;;6.23;3.20;;;5.60;70.60;;;;;;4959829;28;20192;-76
2023/03/14 07:43:06;;;;;;;7.27;3.70;;;5.70;70.80;;;;;;4959149;28;20214;-76
2023/03/14 07:45:32;;;;;;;3.73;3.23;;;5.80;70.60;;;;;;4956187;28;20681;-76
2023/03/14 07:47:57;;;;;;;4.57;4.17;;;5.90;70.30;;;;;;4953780;28;20263;-75
2023/03/14 07:50:27;;;;;;;3.33;3.10;;;6.00;70.10;;;;;;4957764;28;20186;-75
2023/03/14 07:52:53;;;;;;;3.63;3.30;;;6.10;69.80;;;;;;4956956;28;20668;-76
2023/03/14 07:55:19;;;;;;;4.57;4.07;;;6.30;69.60;;;;;;4955686;28;20841;-75
2023/03/14 07:57:45;;;;;;;6.87;4.27;;;6.40;69.00;;;;;;4957267;28;20179;-76
2023/03/14 08:00:11;;;;;;;5.10;4.20;;;6.60;68.40;;;;;;4953316;28;20191;-76
2023/03/14 08:02:37;;;;;;;6.30;3.40;;;6.80;68.00;;;;;;4959581;28;20300;-76
2023/03/14 08:05:03;;;;;;;3.87;3.57;;;7.10;67.50;;;;;;4959006;28;20516;-76
2023/03/14 08:07:29;;;;;;;3.53;3.23;;;7.50;66.60;;;;;;4957638;28;20183;-75
2023/03/14 08:09:55;;;;;;;4.30;3.67;;;8.00;65.80;;;;;;4959407;28;20252;-76
2023/03/14 08:12:20;;;;;;;3.60;3.30;;;8.80;64.70;;;;;;4958556;28;20182;-76
2023/03/14 08:14:46;;;;;;;8.37;5.03;;;9.80;62.70;;;;;;4954953;28;20193;-75
2023/03/14 08:17:12;;;;;;;4.37;4.00;;;10.70;60.70;;;;;;4958897;28;20239;-76
2023/03/14 08:19:37;;;;;;;4.57;3.88;;;11.70;59.40;;;;;;4955295;28;20187;-76
2023/03/14 08:22:04;;;;;;;7.45;4.07;;;12.70;57.50;;;;;;4954641;28;20572;-75
2023/03/14 08:24:30;;;;;;;5.13;4.65;;;13.50;56.20;;;;;;4960896;28;20186;-75
2023/03/14 08:26:55;;;;;;;5.10;4.47;;;14.50;53.80;;;;;;4961261;28;20194;-75
2023/03/14 08:29:21;;;;;;;9.57;4.82;;;15.10;53.10;;;;;;4957555;28;20734;-74
2023/03/14 08:31:48;;;;;;;8.05;5.00;;;15.60;51.70;;;;;;4958062;28;20269;-75
2023/03/14 08:34:14;;;;;;;4.97;4.38;;;16.10;49.80;;;;;;4954867;28;20200;-75
2023/03/14 08:36:40;;;;;;;8.15;5.00;;;16.50;51.10;;;;;;4956948;28;20301;-75
2023/03/14 08:39:07;;;;;;;5.03;4.57;;;17.00;50.60;;;;;;4957799;28;20190;-75
2023/03/14 08:41:33;;;;;;;6.15;4.75;;;17.40;48.60;;;;;;4958352;28;20178;-75
2023/03/14 08:43:58;;;;;;;8.95;4.97;;;17.90;49.20;;;;;;4956609;28;20214;-76
2023/03/14 08:46:24;;;;;;;4.90;4.15;;;18.20;48.10;;;;;;4958833;28;20285;-76
2023/03/14 08:48:50;;;;;;;5.47;4.70;;;18.50;47.60;;;;;;4954829;28;20187;-75
2023/03/14 08:51:16;;;;;;;7.57;4.15;;;18.80;47.10;;;;;;4950442;28;20190;-75
2023/03/14 08:53:42;;;;;;;9.20;4.55;;;19.20;46.60;;;;;;4956824;28;20194;-75
2023/03/14 08:56:09;;;;;;;4.85;4.45;;;19.80;46.40;;;;;;4957327;28;20183;-75
2023/03/14 08:58:37;;;;;;;5.00;4.50;;;20.10;45.20;;;;;;4957652;28;20529;-76
2023/03/14 09:01:07;;;;;;;4.93;4.47;;;20.60;46.00;;;;;;4957446;28;20186;-76
2023/03/14 09:03:33;;;;;;;4.85;4.45;;;21.00;44.30;;;;;;4962806;28;20763;-76
2023/03/14 09:06:04;;;;;;;4.43;4.03;;;21.70;44.20;;;;;;4960100;28;20225;-76
2023/03/14 09:08:29;;;;;;;4.82;4.53;;;22.60;44.90;;;;;;4956851;28;20274;-75
2023/03/14 09:10:56;;;;;;;7.20;4.90;;;23.40;43.20;;;;;;4958086;28;20178;-75
2023/03/14 09:13:21;;;;;;;5.68;4.47;;;24.40;43.40;;;;;;4954586;28;20197;-76
2023/03/14 09:15:51;;;;;;;4.53;4.13;;;25.20;43.20;;;;;;4959759;28;20182;-76
2023/03/14 09:18:17;;;;;;;5.00;4.53;;;25.80;43.20;;;;;;4958941;28;20175;-76
2023/03/14 09:20:43;;;;;;;4.43;4.00;;;26.00;40.70;;;;;;4957171;28;20268;-75
2023/03/14 09:23:08;;;;;;;4.40;4.20;;;26.20;41.20;;;;;;4960518;28;20214;-75
2023/03/14 09:25:34;;;;;;;4.57;4.03;;;26.00;40.90;;;;;;4961701;28;20182;-77
2023/03/14 09:27:59;;;;;;;4.50;4.00;;;25.80;41.40;;;;;;4957170;28;20664;-75
2023/03/14 09:30:25;;;;;;;4.20;3.83;;;26.10;41.20;;;;;;4958415;28;20194;-75
2023/03/14 09:32:51;;;;;;;4.05;3.75;;;26.00;40.90;;;;;;4954351;28;20899;-75
2023/03/14 09:35:16;;;;;;;4.15;3.25;;;26.00;41.00;;;;;;4953622;28;20178;-76
2023/03/14 09:37:42;;;;;;;3.78;3.55;;;25.70;40.60;;;;;;4957013;28;20728;-76
2023/03/14 09:40:13;;;;;;;3.35;3.15;;;25.40;41.40;;;;;;4960781;28;20572;-76
2023/03/14 09:42:40;;;;;;;3.97;3.78;;;25.60;41.90;;;;;;4953475;28;20308;-75
2023/03/14 09:45:16;;;;;;;5.32;3.38;;;26.00;41.80;;;;;;4959570;28;20201;-75
2023/03/14 09:47:44;;;;;;;5.45;4.10;;;26.60;40.90;;;;;;4959564;28;20186;-75
2023/03/14 09:50:16;;;;;;;3.35;3.15;;;27.30;41.30;;;;;;4962175;28;20183;-75
2023/03/14 09:53:00;;;;;;;3.55;3.35;;;27.80;41.70;;;;;;4960408;28;20326;-75
2023/03/14 09:55:26;;;;;;;2.75;2.53;;;28.50;40.30;;;;;;4960993;28;20265;-76
2023/03/14 09:58:02;;;;;;;3.03;2.75;;;28.80;40.10;;;;;;4963602;28;20285;-76
2023/03/14 10:00:30;;;;;;;2.75;2.65;;;29.10;39.70;;;;;;4953130;28;20190;-76
2023/03/14 10:03:21;;;;;;;3.92;3.17;;;29.20;40.50;;;;;;4955395;28;20229;-76
2023/03/14 10:05:47;;;;;;;4.78;2.83;;;29.00;35.20;;;;;;4959930;28;20682;-75
2023/03/14 10:08:13;;;;;;;5.88;2.33;;;28.70;38.30;;;;;;4958242;28;20186;-75
2023/03/14 10:10:39;;;;;;;2.83;2.63;;;28.20;39.50;;;;;;4964919;28;20814;-75
2023/03/14 10:13:17;;;;;;;2.97;2.45;;;28.00;39.90;;;;;;4959887;28;20672;-76
2023/03/14 10:15:48;;;;;;;2.78;2.67;;;27.80;38.50;;;;;;4958347;28;20308;-75
2023/03/14 10:18:14;;;;;;;2.88;2.67;;;27.80;39.10;;;;;;4959113;28;20187;-75
2023/03/14 10:20:46;;;;;;;2.25;2.22;;;27.80;38.40;;;;;;4959613;28;20194;-75
2023/03/14 10:23:12;;;;;;;2.45;2.35;;;27.80;37.20;;;;;;4961862;28;20287;-75
2023/03/14 10:25:40;;;;;;;3.25;2.92;;;27.40;39.10;;;;;;4962217;28;20739;-75
2023/03/14 10:28:27;;;;;;;3.70;2.63;;;27.10;38.90;;;;;;4958189;28;20197;-75
2023/03/14 10:30:53;;;;;;;5.38;2.80;;;26.80;38.90;;;;;;4956591;28;20190;-75
2023/03/14 10:33:25;;;;;;;2.85;2.65;;;27.10;39.60;;;;;;4957135;28;20245;-75
2023/03/14 10:36:03;;;;;;;2.65;2.55;;;27.50;39.00;;;;;;4954668;28;20182;-75
2023/03/14 10:38:31;;;;;;;2.83;2.72;;;28.00;38.90;;;;;;4958563;28;20187;-75
2023/03/14 10:40:59;;;;;;;3.58;2.70;;;28.20;39.60;;;;;;4961545;28;20266;-74
2023/03/14 10:43:36;;;;;;;3.05;2.92;;;28.60;40.40;;;;;;4962098;28;20284;-77
2023/03/14 10:46:16;;;;;;;3.47;3.17;;;28.80;39.20;;;;;;4956845;28;20257;-76
2023/03/14 10:48:43;;;;;;;5.00;3.40;;;28.90;38.80;;;;;;4959237;28;20302;-75
2023/03/14 10:51:18;;;;;;;3.25;2.85;;;28.60;39.40;;;;;;4962069;28;20190;-75
2023/03/14 10:53:45;;;;;;;2.65;2.53;;;28.20;38.10;;;;;;4958490;28;20179;-76
2023/03/14 10:56:35;;;;;;;3.05;2.72;;;27.80;38.40;;;;;;4959901;28;20183;-76
2023/03/14 10:59:03;;;;;;;3.45;3.15;;;27.50;38.20;;;;;;4887944;29;20205;-76
2023/03/14 11:01:38;;;;;;;3.28;3.08;;;27.30;40.60;;;;;;4888556;29;20197;-76
2023/03/14 11:04:06;;;;;;;2.70;2.50;;;27.40;39.80;;;;;;4887976;29;20240;-76
2023/03/14 11:06:50;;;;;;;2.33;2.13;;;27.70;40.90;;;;;;4888262;29;20600;-76
2023/03/14 11:09:29;;;;;;;3.38;2.45;;;28.10;39.50;;;;;;4887690;29;20193;-74
2023/03/14 11:12:02;;;;;;;2.80;2.60;;;28.40;40.70;;;;;;4887033;29;20746;-74
2023/03/14 11:14:41;;;;;;;2.13;2.08;;;28.60;40.90;;;;;;4887966;29;20185;-77
2023/03/14 11:17:30;;;;;;;2.15;1.75;;;28.50;41.10;;;;;;4887791;29;20201;-76
2023/03/14 11:20:22;;;;;;;3.13;1.70;;;28.70;39.00;;;;;;4887459;29;20197;-76
2023/03/14 11:22:58;;;;;;;1.42;1.42;;;28.90;38.60;;;;;;4887012;29;20240;-76
2023/03/14 11:25:32;;;;;;;1.13;1.13;;;29.00;41.10;;;;;;4887188;29;20275;-77
2023/03/14 11:28:09;;;;;;;1.05;1.05;;;28.90;37.60;;;;;;4887431;29;20244;-75
2023/03/14 11:30:37;;;;;;;1.20;1.20;;;28.20;39.70;;;;;;4888005;29;20204;-75
2023/03/14 11:33:16;;;;;;;1.50;1.20;;;27.70;39.40;;;;;;4888794;29;20201;-75
2023/03/14 11:36:00;;;;;;;1.10;1.10;;;27.40;39.10;;;;;;4912798;28;20281;-75
2023/03/14 11:38:37;;;;;;;1.15;1.05;;;27.60;40.50;;;;;;4957541;28;20268;-76
2023/03/14 11:41:04;;;;;;;2.00;1.35;;;28.00;41.80;;;;;;4958271;28;20194;-75
2023/03/14 11:43:34;;;;;;;0.93;0.93;;;28.50;41.90;;;;;;4955972;28;20210;-75
2023/03/14 11:46:37;;;;;;;1.08;1.08;;;29.00;39.50;;;;;;4955791;28;20695;-75
2023/03/14 11:49:11;;;;;;;1.15;1.15;;;29.20;37.40;;;;;;4896347;29;20254;-75
2023/03/14 11:51:41;;;;;;;1.35;1.30;;;29.70;41.00;;;;;;4898224;29;20301;-75
2023/03/14 11:54:18;;;;;;;1.55;1.45;;;30.30;39.40;;;;;;4901890;29;20188;-75
2023/03/14 11:56:49;;;;;;;1.20;1.20;;;30.70;38.10;;;;;;4895518;29;20204;-75
2023/03/14 11:59:24;;;;;;;1.25;1.25;;;31.10;38.10;;;;;;4898523;29;20682;-75
2023/03/14 12:01:59;;;;;;;1.02;1.00;;;31.40;38.30;;;;;;4896976;29;20274;-75
2023/03/14 12:04:50;;;;;;;1.38;1.23;;;31.50;36.40;;;;;;4892047;29;20223;-76
2023/03/14 12:07:39;;;;;;;1.90;1.80;;;31.50;37.70;;;;;;4895686;29;20205;-76
2023/03/14 12:10:05;;;;;;;1.50;1.50;;;31.50;36.40;;;;;;4854771;29;20692;-76
2023/03/14 12:12:32;;;;;;;1.30;1.30;;;31.40;37.60;;;;;;4855524;29;20210;-76
2023/03/14 12:15:00;;;;;;;1.00;1.00;;;31.20;38.60;;;;;;4858286;29;20203;-76
2023/03/14 12:17:41;;;;;;;1.23;1.15;;;30.30;39.10;;;;;;4856430;29;20197;-76
2023/03/14 12:20:26;;;;;;;2.10;1.02;;;29.70;37.50;;;;;;4852198;29;20317;-76
2023/03/14 12:23:10;;;;;;;1.02;1.02;;;29.40;36.10;;;;;;4862233;29;20210;-76
2023/03/14 12:25:36;;;;;;;1.15;1.15;;;29.20;37.90;;;;;;4868634;29;20200;-76
2023/03/14 12:28:21;;;;;;;2.83;1.10;;;29.20;38.50;;;;;;4910034;29;20196;-75
2023/03/14 12:30:47;;;;;;;1.17;1.02;;;29.30;36.70;;;;;;4913476;29;20308;-73
2023/03/14 12:33:19;;;;;;;0.95;0.90;;;29.20;38.20;;;;;;4904617;29;20267;-74
2023/03/14 12:35:50;;;;;;;0.75;0.75;;;29.30;40.00;;;;;;4903005;29;20656;-73
2023/03/14 12:38:31;;;;;;;0.80;0.80;;;29.60;39.70;;;;;;4908049;29;20259;-74
2023/03/14 12:41:07;;;;;;;0.98;0.98;;;29.70;39.40;;;;;;4908847;29;20741;-74
2023/03/14 12:43:34;;;;;;;0.73;0.73;;;29.70;39.00;;;;;;4898164;29;20223;-73
2023/03/14 12:46:18;;;;;;;0.98;0.98;;;29.60;39.00;;;;;;4893774;28;20690;-74
2023/03/14 12:49:10;;;;;;;0.63;0.63;;;29.40;36.90;;;;;;4955304;28;20274;-74
2023/03/14 12:51:39;;;;;;;0.80;0.68;;;29.20;36.10;;;;;;4953018;28;20205;-74
2023/03/14 12:54:29;;;;;;;0.82;0.82;;;29.10;38.20;;;;;;4953135;28;20584;-74
2023/03/14 12:57:06;;;;;;;0.90;0.90;;;29.30;36.80;;;;;;4956502;28;20645;-74
2023/03/14 12:59:37;;;;;;;0.75;0.75;;;29.40;39.50;;;;;;4959812;28;20205;-74
2023/03/14 13:02:05;;;;;;;0.70;0.70;;;29.80;37.80;;;;;;4958022;28;20608;-74